Time;durP1;ratioP1;P1;durP2;ratioP2;P2;SDS_P1;SDS_P2;PMS_P1;PMS_P2;Temp;Humidity;BMP_temperature;BMP_pressure;BME280_temperature;BME280_humidity;BME280_pressure;Samples;Min_cycle;Max_cycle;Signal;HPM_P1;HPM_P2
2023/01/23 00:00:48;;;;;;;37.03;24.95;;;;;;;-0.08;100.00;103396.44;5091945;28;20509;-51
2023/01/23 00:03:14;;;;;;;38.40;25.85;;;;;;;-0.08;100.00;103395.56;5091699;28;20475;-51
2023/01/23 00:05:39;;;;;;;35.53;23.83;;;;;;;-0.09;100.00;103391.13;5091888;28;20062;-50
2023/01/23 00:08:04;;;;;;;39.35;25.70;;;;;;;-0.11;100.00;103388.59;5091520;28;20055;-46
2023/01/23 00:10:30;;;;;;;38.42;24.42;;;;;;;-0.11;100.00;103391.31;5083806;28;20089;-48
2023/01/23 00:12:56;;;;;;;37.17;24.23;;;;;;;-0.09;100.00;103383.84;5091605;28;20028;-45
2023/01/23 00:15:22;;;;;;;37.50;24.88;;;;;;;-0.13;100.00;103378.91;5091203;28;20051;-45
2023/01/23 00:17:47;;;;;;;36.65;25.30;;;;;;;-0.13;100.00;103378.91;5091086;28;20039;-46
2023/01/23 00:20:12;;;;;;;37.05;25.10;;;;;;;-0.12;100.00;103389.63;5091531;28;20024;-46
2023/01/23 00:22:38;;;;;;;37.55;24.17;;;;;;;-0.11;100.00;103380.44;5091634;28;20036;-49
2023/01/23 00:25:05;;;;;;;37.35;24.27;;;;;;;-0.11;100.00;103390.47;5091651;28;20054;-50
2023/01/23 00:27:30;;;;;;;40.20;25.52;;;;;;;-0.12;100.00;103395.06;5091646;28;20020;-47
2023/01/23 00:29:56;;;;;;;47.35;31.17;;;;;;;-0.10;100.00;103386.75;5091592;28;20085;-48
2023/01/23 00:32:21;;;;;;;36.80;25.35;;;;;;;-0.12;100.00;103396.94;5091737;28;20034;-48
2023/01/23 00:34:47;;;;;;;39.10;24.50;;;;;;;-0.12;100.00;103399.66;5091261;28;20391;-46
2023/01/23 00:37:12;;;;;;;36.78;24.23;;;;;;;-0.14;100.00;103409.88;5091229;28;20419;-46
2023/01/23 00:39:39;;;;;;;36.70;25.33;;;;;;;-0.16;100.00;103402.72;5091324;28;20024;-46
2023/01/23 00:42:05;;;;;;;36.88;23.73;;;;;;;-0.11;100.00;103409.53;5091479;28;20039;-48
2023/01/23 00:44:31;;;;;;;38.08;25.35;;;;;;;-0.08;100.00;103406.44;5091302;28;20032;-47
2023/01/23 00:46:56;;;;;;;39.55;25.15;;;;;;;-0.13;100.00;103412.41;5091660;28;20024;-47
2023/01/23 00:49:22;;;;;;;35.67;23.83;;;;;;;-0.10;100.00;103405.78;5091732;28;20029;-46
2023/01/23 00:51:47;;;;;;;36.72;25.17;;;;;;;-0.08;100.00;103398.28;5091142;28;20365;-45
2023/01/23 00:54:13;;;;;;;39.55;24.80;;;;;;;-0.09;100.00;103402.91;5090816;28;20383;-48
2023/01/23 00:56:38;;;;;;;36.80;24.13;;;;;;;-0.03;100.00;103406.81;5090537;28;20059;-49
2023/01/23 00:59:03;;;;;;;38.70;26.20;;;;;;;-0.03;100.00;103409.53;5089735;28;20036;-47
2023/01/23 01:01:30;;;;;;;36.22;25.30;;;;;;;-0.04;100.00;103399.66;5090653;28;20035;-50
2023/01/23 01:03:57;;;;;;;38.97;24.90;;;;;;;-0.03;100.00;103406.81;5090876;28;20111;-51
2023/01/23 01:06:22;;;;;;;39.72;24.95;;;;;;;-0.02;100.00;103400.34;5091122;28;20030;-46
2023/01/23 01:08:48;;;;;;;35.92;24.73;;;;;;;-0.02;100.00;103400.34;5089810;28;20106;-51
2023/01/23 01:11:13;;;;;;;38.58;25.58;;;;;;;-0.03;100.00;103415.81;5089011;28;20059;-51
2023/01/23 01:13:39;;;;;;;40.45;25.98;;;;;;;-0.05;100.00;103417.84;5093713;28;20391;-48
2023/01/23 01:16:05;;;;;;;36.55;25.35;;;;;;;-0.06;100.00;103412.56;5094719;28;20039;-50
2023/01/23 01:18:31;;;;;;;39.15;26.85;;;;;;;-0.08;100.00;103410.03;5092780;28;20024;-50
2023/01/23 01:20:56;;;;;;;38.60;25.63;;;;;;;-0.09;100.00;103407.47;5094836;28;20048;-47
2023/01/23 01:23:21;;;;;;;36.67;24.92;;;;;;;-0.10;100.00;103400.34;5094649;28;20413;-48
2023/01/23 01:25:47;;;;;;;35.15;25.90;;;;;;;-0.10;100.00;103413.97;5093397;28;20038;-48
2023/01/23 01:28:12;;;;;;;37.15;25.00;;;;;;;-0.12;100.00;103411.38;5094789;28;20111;-48
2023/01/23 01:30:39;;;;;;;37.40;25.45;;;;;;;-0.11;100.00;103420.41;5094725;28;20036;-50
2023/01/23 01:33:05;;;;;;;37.78;25.63;;;;;;;-0.13;100.00;103417.00;5094717;28;20032;-46
2023/01/23 01:35:30;;;;;;;41.00;26.00;;;;;;;-0.13;100.00;103420.56;5094538;28;20077;-49
2023/01/23 01:37:57;;;;;;;36.70;25.95;;;;;;;-0.09;100.00;103424.66;5094298;28;20103;-47
2023/01/23 01:40:25;;;;;;;35.80;24.45;;;;;;;-0.09;100.00;103429.25;5094430;28;20047;-49
2023/01/23 01:43:02;;;;;;;37.42;25.77;;;;;;;-0.08;100.00;103433.66;5094540;28;20036;-47
2023/01/23 01:46:07;;;;;;;38.67;25.42;;;;;;;-0.08;100.00;103431.81;5094289;28;20375;-48
2023/01/23 01:48:35;;;;;;;39.97;26.00;;;;;;;-0.06;100.00;103435.22;5094263;28;20451;-45
2023/01/23 01:51:06;;;;;;;40.13;26.48;;;;;;;-0.05;100.00;103425.16;5094183;28;20024;-46
2023/01/23 01:53:32;;;;;;;38.45;25.75;;;;;;;-0.08;100.00;103425.50;5092967;28;20027;-46
2023/01/23 01:55:58;;;;;;;39.22;26.10;;;;;;;-0.08;100.00;103431.81;5093793;28;20438;-48
2023/01/23 01:58:25;;;;;;;37.97;25.42;;;;;;;-0.10;100.00;103422.13;5094088;28;20038;-45
2023/01/23 02:00:50;;;;;;;37.13;25.65;;;;;;;-0.12;100.00;103421.44;5093995;28;20032;-49
2023/01/23 02:03:18;;;;;;;37.63;25.85;;;;;;;-0.14;100.00;103418.03;5093844;28;20040;-46
2023/01/23 02:05:47;;;;;;;38.53;25.88;;;;;;;-0.16;100.00;103419.06;5093945;28;20383;-48
2023/01/23 02:08:31;;;;;;;41.22;26.77;;;;;;;-0.14;100.00;103418.03;5093793;28;20028;-50
2023/01/23 02:11:00;;;;;;;38.08;26.35;;;;;;;-0.14;100.00;103423.47;5086310;28;20131;-46
2023/01/23 02:13:31;;;;;;;45.20;26.67;;;;;;;-0.14;100.00;103423.47;5093365;28;20058;-46
2023/01/23 02:15:58;;;;;;;40.55;25.40;;;;;;;-0.14;100.00;103427.03;5093741;28;20451;-48
2023/01/23 02:18:25;;;;;;;42.30;27.52;;;;;;;-0.15;100.00;103419.91;5092253;28;20055;-47
2023/01/23 02:20:53;;;;;;;41.63;26.20;;;;;;;-0.15;100.00;103425.34;5091998;28;20024;-48
2023/01/23 02:23:47;;;;;;;37.75;25.60;;;;;;;-0.18;100.00;103410.19;5093012;28;20103;-51
2023/01/23 02:26:17;;;;;;;41.78;27.30;;;;;;;-0.17;100.00;103416.50;5093959;28;20024;-49
2023/01/23 02:28:47;;;;;;;40.90;25.92;;;;;;;-0.16;100.00;103412.78;5093420;28;20028;-48
2023/01/23 02:31:14;;;;;;;39.33;26.63;;;;;;;-0.13;100.00;103415.13;5093351;28;20051;-47
2023/01/23 02:33:46;;;;;;;36.63;26.05;;;;;;;-0.16;100.00;103410.88;5093074;28;20031;-48
2023/01/23 02:36:13;;;;;;;40.05;27.27;;;;;;;-0.07;100.00;103421.75;5093428;28;20107;-52
2023/01/23 02:39:01;;;;;;;39.80;25.58;;;;;;;-0.06;100.00;103428.91;5091512;28;20028;-47
2023/01/23 02:41:30;;;;;;;36.55;25.15;;;;;;;-0.02;100.00;103424.84;5093210;28;20115;-48
2023/01/23 02:43:58;;;;;;;38.80;26.13;;;;;;;-0.04;100.00;103418.72;5093018;28;20026;-48
2023/01/23 02:46:24;;;;;;;39.83;26.35;;;;;;;-0.02;100.00;103431.13;5092994;28;20028;-47
2023/01/23 02:48:50;;;;;;;41.80;27.13;;;;;;;-0.02;100.00;103422.94;5093067;28;20103;-49
2023/01/23 02:51:19;;;;;;;38.88;25.50;;;;;;;-0.02;100.00;103417.50;5091471;28;20028;-51
2023/01/23 02:53:45;;;;;;;40.25;26.75;;;;;;;-0.03;100.00;103414.97;5092794;28;20032;-47
2023/01/23 02:56:10;;;;;;;40.55;26.02;;;;;;;0.00;100.00;103417.34;5092658;28;20461;-49
2023/01/23 03:01:20;;;;;;;38.97;26.58;;;;;;;0.02;100.00;103417.19;5093116;28;20089;-45
2023/01/23 03:03:45;;;;;;;41.97;27.20;;;;;;;0.04;100.00;103423.31;5092379;28;20031;-49
2023/01/23 03:06:11;;;;;;;40.05;27.02;;;;;;;0.04;100.00;103418.69;5092655;28;20024;-47
2023/01/23 03:08:46;;;;;;;44.38;26.73;;;;;;;0.04;100.00;103424.13;5086574;28;20034;-46
2023/01/23 03:11:13;;;;;;;38.15;25.98;;;;;;;0.05;100.00;103430.44;5091479;28;20024;-46
2023/01/23 03:13:38;;;;;;;39.92;26.65;;;;;;;0.05;100.00;103416.84;5092495;28;20486;-47
2023/01/23 03:16:05;;;;;;;38.90;25.67;;;;;;;0.03;100.00;103411.56;5092342;28;20115;-47
2023/01/23 03:18:32;;;;;;;38.47;26.15;;;;;;;0.06;100.00;103426.69;5092601;28;20104;-45
2023/01/23 03:21:01;;;;;;;37.50;25.90;;;;;;;0.07;100.00;103417.50;5092363;28;20028;-48
2023/01/23 03:23:26;;;;;;;38.58;26.10;;;;;;;0.09;100.00;103418.19;5092198;28;20028;-45
2023/01/23 03:25:57;;;;;;;40.10;25.80;;;;;;;0.09;100.00;103423.63;5090884;28;20024;-47
2023/01/23 03:31:07;;;;;;;41.60;28.40;;;;;;;0.11;100.00;103437.91;5092655;28;20043;-48
2023/01/23 03:33:32;;;;;;;40.90;26.25;;;;;;;0.11;100.00;103432.47;5091619;28;20031;-48
2023/01/23 03:35:57;;;;;;;40.88;27.45;;;;;;;0.09;100.00;103431.78;5092117;28;20028;-46
2023/01/23 03:38:23;;;;;;;39.78;26.17;;;;;;;0.10;100.00;103430.78;5091080;28;20117;-47
2023/01/23 03:43:33;;;;;;;41.85;27.55;;;;;;;0.07;100.00;103426.53;5092214;28;20051;-46
2023/01/23 03:45:58;;;;;;;40.08;26.50;;;;;;;0.07;100.00;103431.09;5092075;28;20436;-47
2023/01/23 03:48:24;;;;;;;43.08;26.50;;;;;;;0.05;100.00;103431.28;5091987;28;20534;-50
2023/01/23 03:50:50;;;;;;;37.65;26.52;;;;;;;0.05;100.00;103428.56;5092371;28;20027;-48
2023/01/23 03:53:15;;;;;;;38.90;26.73;;;;;;;0.07;100.00;103431.09;5091882;28;20388;-46
2023/01/23 03:55:40;;;;;;;41.13;27.35;;;;;;;0.06;100.00;103432.13;5091805;28;20036;-47
2023/01/23 03:58:05;;;;;;;42.53;28.30;;;;;;;0.06;100.00;103440.28;5091642;28;20028;-50
2023/01/23 04:00:31;;;;;;;44.40;28.85;;;;;;;0.07;100.00;103445.59;5091517;28;20106;-50
2023/01/23 04:02:56;;;;;;;42.38;26.95;;;;;;;0.08;100.00;103424.66;5091700;28;20461;-47
2023/01/23 04:05:22;;;;;;;39.38;28.77;;;;;;;0.04;100.00;103426.88;5091684;28;20059;-48
2023/01/23 04:07:47;;;;;;;42.05;28.67;;;;;;;0.08;100.00;103427.38;5091622;28;20140;-47
2023/01/23 04:10:13;;;;;;;41.20;26.67;;;;;;;0.08;100.00;103436.41;5084013;28;20057;-49
2023/01/23 04:12:38;;;;;;;43.53;28.08;;;;;;;0.07;100.00;103436.56;5090375;28;20077;-46
2023/01/23 04:15:04;;;;;;;43.47;27.08;;;;;;;0.04;100.00;103432.31;5091260;28;20391;-46
2023/01/23 04:17:29;;;;;;;44.40;28.55;;;;;;;0.08;100.00;103436.41;5091673;28;20115;-46
2023/01/23 04:19:54;;;;;;;41.67;27.55;;;;;;;0.11;100.00;103435.19;5089918;28;20490;-45
2023/01/23 04:22:19;;;;;;;43.53;27.38;;;;;;;0.09;100.00;103431.78;5091274;28;20027;-49
2023/01/23 04:24:45;;;;;;;41.30;26.38;;;;;;;0.14;100.00;103432.16;5091200;28;20059;-48
2023/01/23 04:27:10;;;;;;;43.63;28.38;;;;;;;0.12;100.00;103423.28;5091263;28;20024;-47
2023/01/23 04:29:35;;;;;;;40.38;27.45;;;;;;;0.11;100.00;103429.75;5091351;28;20475;-47
2023/01/23 04:32:01;;;;;;;45.83;27.52;;;;;;;0.09;100.00;103438.09;5091247;28;20043;-46
2023/01/23 04:34:26;;;;;;;42.03;27.15;;;;;;;0.15;100.00;103445.56;5089863;28;20081;-48
2023/01/23 04:36:52;;;;;;;45.05;27.13;;;;;;;0.13;100.00;103438.59;5090092;28;20124;-49
2023/01/23 04:39:17;;;;;;;41.83;27.55;;;;;;;0.15;100.00;103442.84;5091071;28;20024;-47
2023/01/23 04:41:43;;;;;;;46.45;28.13;;;;;;;0.14;100.00;103443.03;5090565;28;20024;-47
2023/01/23 04:44:20;;;;;;;44.40;29.10;;;;;;;0.14;100.00;103438.44;5091511;28;20441;-46
2023/01/23 04:46:48;;;;;;;40.97;27.38;;;;;;;0.16;100.00;103443.69;5095436;28;20040;-49
2023/01/23 04:49:14;;;;;;;43.10;28.33;;;;;;;0.14;100.00;103441.16;5095521;28;20034;-50
2023/01/23 04:51:39;;;;;;;41.33;28.02;;;;;;;0.18;100.00;103449.81;5095396;28;20015;-46
2023/01/23 04:54:05;;;;;;;50.83;30.83;;;;;;;0.16;100.00;103443.69;5095059;28;20451;-49
2023/01/23 04:56:30;;;;;;;42.35;28.27;;;;;;;0.18;100.00;103454.44;5093856;28;20075;-47
2023/01/23 04:58:56;;;;;;;42.63;28.05;;;;;;;0.19;100.00;103450.69;5092384;28;20030;-48
2023/01/23 05:01:22;;;;;;;43.22;28.17;;;;;;;0.21;100.00;103451.34;5094119;28;20427;-45
2023/01/23 05:03:51;;;;;;;45.78;29.38;;;;;;;0.21;100.00;103454.94;5095055;28;20027;-44
2023/01/23 05:06:17;;;;;;;39.55;26.75;;;;;;;0.25;100.00;103455.44;5095158;28;20032;-46
2023/01/23 05:08:42;;;;;;;43.33;28.65;;;;;;;0.25;100.00;103453.53;5094909;28;20031;-45
2023/01/23 05:11:08;;;;;;;43.10;28.17;;;;;;;0.24;100.00;103459.16;5087736;28;20036;-49
2023/01/23 05:13:33;;;;;;;42.47;27.75;;;;;;;0.25;100.00;103461.72;5094878;28;20020;-45
2023/01/23 05:15:58;;;;;;;42.90;29.40;;;;;;;0.27;100.00;103467.84;5095031;28;20104;-46
2023/01/23 05:18:24;;;;;;;41.40;27.20;;;;;;;0.25;100.00;103459.00;5094108;28;20406;-46
2023/01/23 05:20:49;;;;;;;39.75;26.73;;;;;;;0.27;100.00;103451.50;5093699;28;20031;-45
2023/01/23 05:23:15;;;;;;;43.28;28.00;;;;;;;0.24;100.00;103454.56;5093596;28;20032;-48
2023/01/23 05:25:40;;;;;;;41.08;29.00;;;;;;;0.23;100.00;103452.03;5094242;28;20035;-50
2023/01/23 05:28:05;;;;;;;40.10;26.77;;;;;;;0.25;100.00;103466.31;5094807;28;20073;-46
2023/01/23 05:30:31;;;;;;;42.90;27.85;;;;;;;0.26;100.00;103468.03;5094545;28;20024;-47
2023/01/23 05:32:56;;;;;;;41.88;27.73;;;;;;;0.26;100.00;103466.13;5093200;28;20107;-49
2023/01/23 05:35:22;;;;;;;43.15;27.50;;;;;;;0.30;100.00;103470.22;5094632;28;20123;-46
2023/01/23 05:37:49;;;;;;;43.78;28.20;;;;;;;0.32;100.00;103466.50;5094606;28;20028;-47
2023/01/23 05:40:15;;;;;;;41.28;27.17;;;;;;;0.34;100.00;103469.88;5094647;28;20028;-45
2023/01/23 05:42:40;;;;;;;49.40;30.83;;;;;;;0.35;100.00;103466.13;5094188;28;20028;-49
2023/01/23 05:45:06;;;;;;;40.45;28.60;;;;;;;0.35;100.00;103475.16;5094183;28;20039;-47
2023/01/23 05:47:31;;;;;;;44.05;28.42;;;;;;;0.34;100.00;103473.44;5094429;28;20070;-46
2023/01/23 05:49:56;;;;;;;39.70;25.58;;;;;;;0.34;100.00;103480.75;5094215;28;20030;-47
2023/01/23 05:52:22;;;;;;;41.97;27.65;;;;;;;0.32;100.00;103477.38;5093554;28;20056;-45
2023/01/23 05:54:47;;;;;;;39.58;25.90;;;;;;;0.30;100.00;103475.69;5093885;28;20048;-45
2023/01/23 05:57:12;;;;;;;42.30;27.02;;;;;;;0.32;100.00;103470.03;5093956;28;20122;-45
2023/01/23 05:59:38;;;;;;;40.72;27.65;;;;;;;0.32;100.00;103466.50;5092978;28;20386;-46
2023/01/23 06:02:03;;;;;;;41.25;27.85;;;;;;;0.30;100.00;103477.53;5092666;28;20046;-46
2023/01/23 06:04:29;;;;;;;41.63;28.15;;;;;;;0.26;100.00;103476.19;5094104;28;20039;-44
2023/01/23 06:06:54;;;;;;;40.80;26.83;;;;;;;0.28;100.00;103485.03;5093843;28;20391;-45
2023/01/23 06:09:19;;;;;;;39.17;28.02;;;;;;;0.31;100.00;103501.03;5089739;28;20028;-46
2023/01/23 06:11:45;;;;;;;41.15;27.55;;;;;;;0.31;100.00;103490.13;5090476;28;20107;-46
2023/01/23 06:14:10;;;;;;;39.97;26.00;;;;;;;0.34;100.00;103480.75;5093534;28;20062;-45
2023/01/23 06:16:35;;;;;;;42.65;27.67;;;;;;;0.34;100.00;103491.66;5093071;28;20040;-48
2023/01/23 06:19:00;;;;;;;39.13;27.27;;;;;;;0.35;100.00;103502.38;5093371;28;20411;-49
2023/01/23 06:21:26;;;;;;;41.13;27.25;;;;;;;0.35;100.00;103498.81;5092844;28;20387;-49
2023/01/23 06:23:51;;;;;;;39.28;26.45;;;;;;;0.37;100.00;103505.81;5093110;28;20471;-50
2023/01/23 06:26:16;;;;;;;40.17;27.45;;;;;;;0.40;100.00;103501.88;5093236;28;20067;-46
2023/01/23 06:28:42;;;;;;;39.28;26.30;;;;;;;0.39;100.00;103501.00;5093168;28;20386;-47
2023/01/23 06:31:09;;;;;;;41.28;27.15;;;;;;;0.41;100.00;103504.41;5091220;28;20020;-46
2023/01/23 06:33:35;;;;;;;40.30;27.45;;;;;;;0.42;100.00;103494.38;5092450;28;20036;-46
2023/01/23 06:36:02;;;;;;;42.50;27.65;;;;;;;0.40;100.00;103491.81;5092721;28;20024;-46
2023/01/23 06:38:28;;;;;;;40.70;26.33;;;;;;;0.42;100.00;103505.28;5091711;28;20036;-45
2023/01/23 06:40:53;;;;;;;41.70;27.17;;;;;;;0.40;100.00;103501.88;5092421;28;20024;-49
2023/01/23 06:43:20;;;;;;;42.83;29.90;;;;;;;0.40;100.00;103502.72;5092401;28;20058;-46
2023/01/23 06:45:46;;;;;;;40.75;28.25;;;;;;;0.40;100.00;103501.88;5092204;28;20435;-45
2023/01/23 06:48:11;;;;;;;39.20;27.05;;;;;;;0.40;100.00;103507.31;5092305;28;20051;-47
2023/01/23 06:50:38;;;;;;;38.85;26.02;;;;;;;0.42;100.00;103502.56;5092245;28;20387;-46
2023/01/23 06:53:04;;;;;;;43.17;27.73;;;;;;;0.40;100.00;103504.59;5092100;28;20039;-47
2023/01/23 06:55:30;;;;;;;43.60;31.50;;;;;;;0.41;100.00;103507.13;5092216;28;20051;-47
2023/01/23 06:57:55;;;;;;;41.65;28.35;;;;;;;0.41;100.00;103509.88;5090888;28;20138;-45
2023/01/23 07:00:21;;;;;;;41.72;28.63;;;;;;;0.41;100.00;103515.31;5092276;28;20032;-46
2023/01/23 07:02:46;;;;;;;42.25;28.98;;;;;;;0.45;100.00;103513.09;5080764;28;20530;-47
2023/01/23 07:05:12;;;;;;;37.95;26.70;;;;;;;0.43;100.00;103507.81;5069537;28;20607;-51
2023/01/23 07:07:37;;;;;;;38.38;27.63;;;;;;;0.45;100.00;103515.81;5068619;28;20063;-46
2023/01/23 07:10:03;;;;;;;35.78;24.17;;;;;;;0.46;100.00;103523.84;5071928;28;20077;-49
2023/01/23 07:12:28;;;;;;;38.78;26.35;;;;;;;0.49;100.00;103519.91;5071607;28;20073;-49
2023/01/23 07:14:53;;;;;;;42.28;27.27;;;;;;;0.46;100.00;103518.38;5071217;28;20031;-49
2023/01/23 07:17:19;;;;;;;41.80;28.15;;;;;;;0.45;100.00;103524.84;5072020;28;20033;-46
2023/01/23 07:19:44;;;;;;;47.85;31.90;;;;;;;0.47;100.00;103525.50;5071275;28;20457;-47
2023/01/23 07:22:09;;;;;;;42.00;29.10;;;;;;;0.48;100.00;103529.09;5067898;28;20144;-48
2023/01/23 07:24:35;;;;;;;40.97;27.75;;;;;;;0.48;100.00;103529.09;5068550;28;20637;-48
2023/01/23 07:27:00;;;;;;;41.08;27.98;;;;;;;0.40;100.00;103519.06;5069900;28;20036;-47
2023/01/23 07:29:25;;;;;;;40.15;28.73;;;;;;;0.46;100.00;103540.19;5068500;28;20075;-51
2023/01/23 07:31:51;;;;;;;41.85;28.90;;;;;;;0.49;100.00;103538.97;5069694;28;20024;-49
2023/01/23 07:34:16;;;;;;;42.35;28.58;;;;;;;0.49;100.00;103541.69;5069430;28;20052;-45
2023/01/23 07:36:42;;;;;;;41.35;28.27;;;;;;;0.47;100.00;103541.00;5072234;28;20036;-47
2023/01/23 07:39:08;;;;;;;41.35;28.65;;;;;;;0.52;100.00;103554.94;5078118;28;20031;-47
2023/01/23 07:41:33;;;;;;;41.15;27.80;;;;;;;0.50;100.00;103548.84;5092500;28;20038;-46
2023/01/23 07:43:58;;;;;;;41.13;27.70;;;;;;;0.50;100.00;103556.16;5092464;28;20024;-47
2023/01/23 07:46:25;;;;;;;40.50;27.20;;;;;;;0.51;100.00;103553.28;5091956;28;20112;-46
2023/01/23 07:48:51;;;;;;;42.13;27.10;;;;;;;0.52;100.00;103552.22;5091925;28;20509;-47
2023/01/23 07:51:16;;;;;;;42.20;27.40;;;;;;;0.54;100.00;103563.81;5092014;28;20032;-47
2023/01/23 07:53:42;;;;;;;40.42;25.92;;;;;;;0.54;100.00;103563.81;5092160;28;20028;-49
2023/01/23 07:56:07;;;;;;;42.03;26.10;;;;;;;0.57;100.00;103563.47;5091593;28;20056;-47
2023/01/23 07:58:32;;;;;;;38.53;25.38;;;;;;;0.56;100.00;103567.22;5091688;28;20498;-48
2023/01/23 08:00:58;;;;;;;38.15;25.90;;;;;;;0.57;100.00;103576.22;5091621;28;20499;-47
2023/01/23 08:03:26;;;;;;;40.88;26.27;;;;;;;0.57;100.00;103562.63;5091821;28;20555;-47
2023/01/23 08:05:51;;;;;;;37.55;25.50;;;;;;;0.58;100.00;103572.50;5091485;28;20036;-46
2023/01/23 08:08:17;;;;;;;43.78;29.85;;;;;;;0.57;100.00;103563.47;5091576;28;20096;-47
2023/01/23 08:10:42;;;;;;;39.67;26.52;;;;;;;0.60;100.00;103567.72;5091648;28;20475;-47
2023/01/23 08:13:08;;;;;;;39.78;27.35;;;;;;;0.62;100.00;103571.13;5091429;28;20132;-49
2023/01/23 08:15:33;;;;;;;38.25;25.73;;;;;;;0.62;100.00;103571.13;5091353;28;20034;-46
2023/01/23 08:17:58;;;;;;;39.88;26.98;;;;;;;0.64;100.00;103580.00;5091305;28;20027;-48
2023/01/23 08:20:24;;;;;;;38.55;25.00;;;;;;;0.69;100.00;103576.75;5091425;28;20102;-48
2023/01/23 08:22:49;;;;;;;35.92;24.33;;;;;;;0.74;100.00;103574.34;5091487;28;20445;-53
2023/01/23 08:25:14;;;;;;;41.92;28.20;;;;;;;0.75;100.00;103578.78;5091474;28;20032;-50
2023/01/23 08:27:40;;;;;;;35.83;24.73;;;;;;;0.80;100.00;103583.72;5091434;28;20047;-47
2023/01/23 08:30:06;;;;;;;38.92;25.80;;;;;;;0.80;100.00;103584.56;5091192;28;20071;-49
2023/01/23 08:32:31;;;;;;;39.42;26.13;;;;;;;0.81;100.00;103588.16;5091322;28;20218;-50
2023/01/23 08:34:56;;;;;;;37.90;25.77;;;;;;;0.81;100.00;103588.97;5091225;28;20028;-49
2023/01/23 08:37:22;;;;;;;37.60;25.98;;;;;;;0.82;100.00;103587.13;5091566;28;20051;-47
2023/01/23 08:39:47;;;;;;;43.25;25.35;;;;;;;0.84;100.00;103591.38;5087809;28;20035;-48
2023/01/23 08:42:12;;;;;;;37.00;25.42;;;;;;;0.86;100.00;103596.63;5069044;28;20403;-48
2023/01/23 08:44:38;;;;;;;39.40;25.58;;;;;;;0.89;100.00;103591.72;5068782;28;20024;-47
2023/01/23 08:47:03;;;;;;;38.00;25.33;;;;;;;0.93;100.00;103601.22;5069127;28;20059;-47
2023/01/23 08:49:28;;;;;;;39.05;24.67;;;;;;;0.98;100.00;103598.00;5069068;28;20567;-45
2023/01/23 08:51:55;;;;;;;36.97;24.70;;;;;;;1.01;100.00;103603.09;5068788;28;20028;-50
2023/01/23 08:54:21;;;;;;;36.95;25.23;;;;;;;1.04;100.00;103600.00;5068851;28;20095;-48
2023/01/23 08:56:46;;;;;;;38.78;25.17;;;;;;;1.09;100.00;103594.03;5068894;28;20444;-51
2023/01/23 08:59:11;;;;;;;38.47;24.85;;;;;;;1.12;100.00;103604.59;5069146;28;20033;-49
2023/01/23 09:01:36;;;;;;;38.72;25.50;;;;;;;1.13;100.00;103600.84;5083936;28;20062;-51
2023/01/23 09:04:02;;;;;;;34.20;22.08;;;;;;;1.20;100.00;103593.66;5088514;28;20139;-51
2023/01/23 09:06:27;;;;;;;35.97;23.50;;;;;;;1.22;100.00;103596.25;5087381;28;20028;-49
2023/01/23 09:08:52;;;;;;;37.63;23.48;;;;;;;1.21;100.00;103603.56;5088511;28;20337;-47
2023/01/23 09:11:18;;;;;;;34.90;23.08;;;;;;;1.24;100.00;103611.41;5088229;28;20043;-47
2023/01/23 09:13:45;;;;;;;37.40;23.88;;;;;;;1.34;100.00;103608.44;5088867;28;20030;-48
2023/01/23 09:16:10;;;;;;;37.53;23.90;;;;;;;1.30;100.00;103608.97;5087551;28;20117;-47
2023/01/23 09:18:36;;;;;;;37.85;24.92;;;;;;;1.32;100.00;103605.06;5088852;28;20031;-49
2023/01/23 09:21:10;;;;;;;37.95;24.98;;;;;;;1.32;100.00;103607.81;5088396;28;20058;-48
2023/01/23 09:23:35;;;;;;;36.47;24.25;;;;;;;1.30;100.00;103606.25;5085465;28;20570;-48
2023/01/23 09:26:07;;;;;;;35.80;23.60;;;;;;;1.30;100.00;103596.22;5088508;28;20135;-47
2023/01/23 09:28:34;;;;;;;38.20;23.10;;;;;;;1.34;100.00;103594.81;5088625;28;20149;-47
2023/01/23 09:31:06;;;;;;;32.92;21.60;;;;;;;1.44;100.00;103594.63;5090333;28;20200;-50
2023/01/23 09:33:34;;;;;;;37.13;23.27;;;;;;;1.51;100.00;103597.50;5092557;28;20078;-49
2023/01/23 09:36:00;;;;;;;36.78;23.58;;;;;;;1.54;100.00;103600.72;5092359;28;20040;-52
2023/01/23 09:38:26;;;;;;;37.00;24.33;;;;;;;1.56;100.00;103595.06;5092447;28;20055;-50
2023/01/23 09:40:55;;;;;;;37.03;22.90;;;;;;;1.56;100.00;103595.91;5091874;28;20039;-49
2023/01/23 09:43:38;;;;;;;35.72;22.35;;;;;;;1.62;100.00;103598.97;5092006;28;20028;-50
2023/01/23 09:46:34;;;;;;;36.15;23.10;;;;;;;1.65;100.00;103602.19;5091705;28;20044;-48
2023/01/23 09:49:18;;;;;;;31.73;21.20;;;;;;;1.65;100.00;103604.91;5092059;28;20058;-47
2023/01/23 09:51:47;;;;;;;37.45;25.05;;;;;;;1.60;100.00;103610.06;5091625;28;20036;-49
2023/01/23 09:54:12;;;;;;;34.50;21.42;;;;;;;1.64;100.00;103621.47;5091532;28;20024;-49
2023/01/23 09:56:44;;;;;;;36.70;24.25;;;;;;;1.61;100.00;103628.13;5091366;28;20028;-47
2023/01/23 09:59:09;;;;;;;33.97;22.05;;;;;;;1.64;100.00;103626.94;5091624;28;20028;-49
2023/01/23 10:01:36;;;;;;;34.22;22.00;;;;;;;1.61;100.00;103625.41;5091058;28;20143;-49
2023/01/23 10:04:02;;;;;;;35.08;23.80;;;;;;;1.65;100.00;103626.75;5090459;28;20049;-49
2023/01/23 10:06:40;;;;;;;35.50;23.50;;;;;;;1.67;100.00;103623.84;5091482;28;20047;-48
2023/01/23 10:09:05;;;;;;;34.45;22.75;;;;;;;1.67;100.00;103619.25;5091661;28;20035;-49
2023/01/23 10:11:48;;;;;;;33.03;22.10;;;;;;;1.67;100.00;103621.09;5091060;28;20024;-49
2023/01/23 10:14:43;;;;;;;34.63;22.35;;;;;;;1.79;100.00;103624.31;5091369;28;20070;-48
2023/01/23 10:17:27;;;;;;;33.85;23.05;;;;;;;1.79;100.00;103616.97;5090337;28;20376;-51
2023/01/23 10:19:52;;;;;;;;;;;;;;;1.89;100.00;103621.34;5091852;28;20475;-49
2023/01/23 10:22:37;;;;;;;31.52;21.80;;;;;;;1.90;100.00;103618.44;5091558;28;19912;-48
2023/01/23 10:25:31;;;;;;;33.38;21.70;;;;;;;1.93;100.00;103637.19;5090093;28;20111;-49
2023/01/23 10:28:11;;;;;;;33.38;22.10;;;;;;;1.91;100.00;103633.78;5091807;28;20035;-49
2023/01/23 10:30:39;;;;;;;35.20;21.95;;;;;;;1.92;100.00;103626.47;5091636;28;20038;-49
2023/01/23 10:33:13;;;;;;;33.55;22.27;;;;;;;1.86;100.00;103622.56;5091532;28;20107;-51
2023/01/23 10:35:52;;;;;;;31.77;21.58;;;;;;;1.90;100.00;103623.88;5090082;28;20032;-50
2023/01/23 10:38:42;;;;;;;35.28;21.23;;;;;;;1.92;100.00;103624.56;5091488;28;20032;-49
2023/01/23 10:41:12;;;;;;;34.35;22.55;;;;;;;1.93;100.00;103625.44;5091294;28;20060;-47
2023/01/23 10:43:39;;;;;;;32.97;21.77;;;;;;;1.95;100.00;103626.06;5090434;28;20035;-50
2023/01/23 10:46:11;;;;;;;33.80;22.90;;;;;;;1.96;100.00;103616.88;5091529;28;20050;-51
2023/01/23 10:48:40;;;;;;;33.20;22.35;;;;;;;1.95;100.00;103615.16;5091268;28;20051;-46
2023/01/23 10:51:30;;;;;;;32.30;21.85;;;;;;;1.98;100.00;103618.41;5091527;28;20044;-47
2023/01/23 10:54:02;;;;;;;33.95;21.65;;;;;;;2.01;100.00;103618.03;5091351;28;20020;-48
2023/01/23 10:56:28;;;;;;;35.05;23.33;;;;;;;1.97;100.00;103616.72;5089678;28;20365;-46
2023/01/23 10:58:59;;;;;;;33.70;21.70;;;;;;;1.98;100.00;103618.41;5089640;28;20054;-49
2023/01/23 11:01:28;;;;;;;31.70;22.55;;;;;;;1.97;100.00;103621.28;5090851;28;20055;-47
2023/01/23 11:03:53;;;;;;;34.88;22.38;;;;;;;1.99;100.00;103620.09;5090842;28;20099;-51
2023/01/23 11:06:24;;;;;;;32.28;22.25;;;;;;;2.07;100.00;103608.28;5090788;28;20434;-48
2023/01/23 11:08:56;;;;;;;33.38;21.83;;;;;;;2.11;100.00;103611.47;5090878;28;20144;-49
2023/01/23 11:11:27;;;;;;;31.35;21.25;;;;;;;2.17;100.00;103617.06;5090658;28;20406;-47
2023/01/23 11:14:10;;;;;;;31.92;21.13;;;;;;;2.27;100.00;103613.25;5090579;28;20038;-50
2023/01/23 11:16:35;;;;;;;31.50;20.33;;;;;;;2.28;100.00;103614.97;5090947;28;20032;-48